createdAt,value
2023-03-29T00:01:36.097Z,71.10
2023-03-29T00:04:04.978Z,71.60
2023-03-29T00:06:33.074Z,70.90
2023-03-29T00:09:01.651Z,71.80
2023-03-29T00:11:28.864Z,72.30
2023-03-29T00:13:56.155Z,72.30
2023-03-29T00:16:23.348Z,72.00
2023-03-29T00:18:50.611Z,72.30
2023-03-29T00:21:17.685Z,72.50
2023-03-29T00:23:44.757Z,72.20
2023-03-29T00:26:12.353Z,72.30
2023-03-29T00:28:39.662Z,72.80
2023-03-29T00:31:12.281Z,72.30
2023-03-29T00:33:40.651Z,72.00
2023-03-29T00:36:09.284Z,72.40
2023-03-29T00:38:37.048Z,71.30
2023-03-29T00:41:06.744Z,71.30
2023-03-29T00:44:00.608Z,71.20
2023-03-29T00:46:30.176Z,71.10
2023-03-29T00:49:12.579Z,71.30
2023-03-29T00:51:42.527Z,70.60
2023-03-29T00:54:14.630Z,70.60
2023-03-29T00:56:44.601Z,70.10
2023-03-29T00:59:24.489Z,69.70
2023-03-29T01:02:02.105Z,69.00
2023-03-29T01:04:42.839Z,68.60
2023-03-29T01:07:17.843Z,68.30
2023-03-29T01:09:50.726Z,68.60
2023-03-29T01:12:24.272Z,68.60
2023-03-29T01:14:55.813Z,69.60
2023-03-29T01:17:25.537Z,70.30
2023-03-29T01:20:07.819Z,70.40
2023-03-29T01:22:46.033Z,70.50
2023-03-29T01:25:33.952Z,70.00
2023-03-29T01:28:06.276Z,70.00
2023-03-29T01:30:40.260Z,70.30
2023-03-29T01:33:21.233Z,70.20
2023-03-29T01:35:57.520Z,70.40
2023-03-29T01:38:31.955Z,70.30
2023-03-29T01:40:59.070Z,71.00
2023-03-29T01:43:41.234Z,71.20
2023-03-29T01:46:19.086Z,71.50
2023-03-29T01:48:58.443Z,71.40
2023-03-29T01:51:43.328Z,71.50
2023-03-29T01:54:22.022Z,72.30
2023-03-29T01:56:51.268Z,72.90
2023-03-29T01:59:26.134Z,73.10
2023-03-29T02:01:57.741Z,72.80
2023-03-29T02:04:35.224Z,73.10
2023-03-29T02:07:04.180Z,72.70
2023-03-29T02:09:33.274Z,72.70
2023-03-29T02:12:02.028Z,72.50
2023-03-29T02:14:30.346Z,72.00
2023-03-29T02:17:08.895Z,72.70
2023-03-29T02:19:36.062Z,73.20
2023-03-29T02:22:09.459Z,73.30
2023-03-29T02:24:38.924Z,73.40
2023-03-29T02:27:06.136Z,73.90
2023-03-29T02:29:33.437Z,73.70
2023-03-29T02:32:09.978Z,73.50
2023-03-29T02:34:50.206Z,73.20
2023-03-29T02:37:21.622Z,72.90
2023-03-29T02:39:50.450Z,72.60
2023-03-29T02:42:20.289Z,72.60
2023-03-29T02:44:52.435Z,72.70
2023-03-29T02:47:28.550Z,72.50
2023-03-29T02:49:55.850Z,72.70
2023-03-29T02:52:28.991Z,73.50
2023-03-29T02:54:56.901Z,74.50
2023-03-29T02:57:26.469Z,74.50
2023-03-29T02:59:56.894Z,74.40
2023-03-29T03:02:27.744Z,74.20
2023-03-29T03:04:54.950Z,74.10
2023-03-29T03:07:22.181Z,74.00
2023-03-29T03:09:49.367Z,73.80
2023-03-29T03:12:16.488Z,74.10
2023-03-29T03:14:44.544Z,73.70
2023-03-29T03:17:11.690Z,73.60
2023-03-29T03:19:38.748Z,73.40
2023-03-29T03:22:07.545Z,73.40
2023-03-29T03:24:36.511Z,73.30
2023-03-29T03:27:03.590Z,73.20
2023-03-29T03:29:30.665Z,73.00
2023-03-29T03:31:58.317Z,73.70
2023-03-29T03:34:26.212Z,72.90
2023-03-29T03:36:55.346Z,72.80
2023-03-29T03:39:22.736Z,72.90
2023-03-29T03:41:49.813Z,72.60
2023-03-29T03:44:17.122Z,72.60
2023-03-29T03:46:44.176Z,72.50
2023-03-29T03:49:12.000Z,72.30
2023-03-29T03:51:39.092Z,72.30
2023-03-29T03:54:06.724Z,72.50
2023-03-29T03:56:34.161Z,73.20
2023-03-29T03:59:01.400Z,74.60
2023-03-29T04:01:28.473Z,74.10
2023-03-29T04:03:55.776Z,74.40
2023-03-29T04:06:22.849Z,74.50
2023-03-29T04:08:49.905Z,74.60
2023-03-29T04:11:16.977Z,74.80
2023-03-29T04:13:44.041Z,75.30
2023-03-29T04:16:11.283Z,75.60
2023-03-29T04:18:38.483Z,75.50
2023-03-29T04:21:05.890Z,75.40
2023-03-29T04:23:32.993Z,75.90
2023-03-29T04:26:00.142Z,76.30
2023-03-29T04:28:27.316Z,75.80
2023-03-29T04:30:54.398Z,75.40
2023-03-29T04:33:21.613Z,75.60
2023-03-29T04:35:48.721Z,75.30
2023-03-29T04:38:16.941Z,74.90
2023-03-29T04:40:44.310Z,74.60
2023-03-29T04:43:12.114Z,74.60
2023-03-29T04:45:39.273Z,74.20
2023-03-29T04:48:06.411Z,74.20
2023-03-29T04:50:33.488Z,74.10
2023-03-29T04:53:00.537Z,73.90
2023-03-29T04:55:27.684Z,73.70
2023-03-29T04:57:55.464Z,74.40
2023-03-29T05:00:27.093Z,73.60
2023-03-29T05:02:54.748Z,73.50
2023-03-29T05:05:22.033Z,73.60
2023-03-29T05:07:49.541Z,74.40
2023-03-29T05:10:17.064Z,75.10
2023-03-29T05:12:44.424Z,74.90
2023-03-29T05:15:11.978Z,74.90
2023-03-29T05:17:39.300Z,75.20
2023-03-29T05:20:09.591Z,75.30
2023-03-29T05:22:36.682Z,75.50
2023-03-29T05:25:04.889Z,76.20
2023-03-29T05:27:33.354Z,77.00
2023-03-29T05:30:01.638Z,76.20
2023-03-29T05:32:28.912Z,76.40
2023-03-29T05:34:56.085Z,76.50
2023-03-29T05:37:23.176Z,76.40
2023-03-29T05:39:50.199Z,76.80
2023-03-29T05:42:22.207Z,77.00
2023-03-29T05:44:49.330Z,76.90
2023-03-29T05:47:16.409Z,76.70
2023-03-29T05:49:43.516Z,77.00
2023-03-29T05:52:10.647Z,77.20
2023-03-29T05:54:37.702Z,77.10
2023-03-29T05:57:05.201Z,76.90
2023-03-29T05:59:33.617Z,76.70
2023-03-29T06:02:03.006Z,76.40
2023-03-29T06:04:30.737Z,76.20
2023-03-29T06:06:57.907Z,76.10
2023-03-29T06:09:25.677Z,76.10
2023-03-29T06:11:52.814Z,75.90
2023-03-29T06:14:20.842Z,75.60
2023-03-29T06:16:47.955Z,75.40
2023-03-29T06:19:15.133Z,75.20
2023-03-29T06:21:42.233Z,75.10
2023-03-29T06:24:09.498Z,74.80
2023-03-29T06:26:36.668Z,74.30
2023-03-29T06:29:04.301Z,74.10
2023-03-29T06:31:31.496Z,74.30
2023-03-29T06:33:58.672Z,74.20
2023-03-29T06:36:25.829Z,74.00
2023-03-29T06:38:52.963Z,74.20
2023-03-29T06:41:21.399Z,74.20
2023-03-29T06:43:48.445Z,74.40
2023-03-29T06:46:16.852Z,74.40
2023-03-29T06:48:45.007Z,75.10
2023-03-29T06:51:12.100Z,75.30
2023-03-29T06:53:41.356Z,75.30
2023-03-29T06:56:09.796Z,75.40
2023-03-29T06:58:37.148Z,75.80
2023-03-29T07:01:04.880Z,75.90
2023-03-29T07:03:34.858Z,76.00
2023-03-29T07:06:09.573Z,76.20
2023-03-29T07:08:43.185Z,76.40
2023-03-29T07:11:13.140Z,76.50
2023-03-29T07:13:43.923Z,76.50
2023-03-29T07:16:14.953Z,76.80
2023-03-29T07:18:43.926Z,76.40
2023-03-29T07:21:12.946Z,76.30
2023-03-29T07:23:40.765Z,76.20
2023-03-29T07:26:08.106Z,76.10
2023-03-29T07:28:37.263Z,76.20
2023-03-29T07:31:11.283Z,76.20
2023-03-29T07:33:39.100Z,76.10
2023-03-29T07:36:07.023Z,76.50
2023-03-29T07:38:34.395Z,76.00
2023-03-29T07:41:05.304Z,75.80
2023-03-29T07:43:34.118Z,75.80
2023-03-29T07:46:05.927Z,75.60
2023-03-29T07:48:33.595Z,75.40
2023-03-29T07:51:01.249Z,75.20
2023-03-29T07:53:29.681Z,75.20
2023-03-29T07:55:57.305Z,75.10
2023-03-29T07:58:24.477Z,74.90
2023-03-29T08:00:51.583Z,75.40
2023-03-29T08:03:18.873Z,75.60
2023-03-29T08:05:46.147Z,75.40
2023-03-29T08:08:14.113Z,75.80
2023-03-29T08:10:42.427Z,75.60
2023-03-29T08:13:10.216Z,75.60
2023-03-29T08:15:39.336Z,75.50
2023-03-29T08:18:07.666Z,75.50
2023-03-29T08:20:34.966Z,75.50
2023-03-29T08:23:02.190Z,76.50
2023-03-29T08:25:29.748Z,75.60
2023-03-29T08:27:57.081Z,75.60
2023-03-29T08:30:24.956Z,75.40
2023-03-29T08:32:55.191Z,75.20
2023-03-29T08:35:22.731Z,75.20
2023-03-29T08:37:49.825Z,75.20
2023-03-29T08:40:21.362Z,74.90
2023-03-29T08:42:57.352Z,74.40
2023-03-29T08:45:41.056Z,73.20
2023-03-29T08:48:29.836Z,70.50
2023-03-29T08:51:24.411Z,63.50
2023-03-29T08:53:58.069Z,65.30
2023-03-29T08:56:32.170Z,68.20
2023-03-29T08:59:01.576Z,69.60
2023-03-29T09:01:34.797Z,70.50
2023-03-29T09:04:20.096Z,70.50
2023-03-29T09:06:47.581Z,70.70
2023-03-29T09:09:18.507Z,71.00
2023-03-29T09:11:54.737Z,71.00
2023-03-29T09:14:45.021Z,70.70
2023-03-29T09:17:59.385Z,71.40
2023-03-29T09:20:56.912Z,66.20
2023-03-29T09:23:34.593Z,67.50
2023-03-29T09:26:31.060Z,65.00
2023-03-29T09:29:17.235Z,64.80
2023-03-29T09:31:45.021Z,63.00
2023-03-29T09:34:22.587Z,66.20
2023-03-29T09:36:55.869Z,63.50
2023-03-29T09:39:23.077Z,64.60
2023-03-29T09:41:58.710Z,66.90
2023-03-29T09:44:35.799Z,68.20
2023-03-29T09:47:19.122Z,69.50
2023-03-29T09:49:49.971Z,70.10
2023-03-29T09:52:19.889Z,69.50
2023-03-29T09:54:47.268Z,69.90
2023-03-29T09:57:17.518Z,70.20
2023-03-29T09:59:46.673Z,70.30
2023-03-29T10:02:14.514Z,70.50
2023-03-29T10:04:42.875Z,70.90
2023-03-29T10:07:18.762Z,70.50
2023-03-29T10:09:46.708Z,70.50
2023-03-29T10:12:15.846Z,71.00
2023-03-29T10:14:47.846Z,71.50
2023-03-29T10:17:28.223Z,71.00
2023-03-29T10:20:04.153Z,71.50
2023-03-29T10:22:37.651Z,71.50
2023-03-29T10:25:12.618Z,71.40
2023-03-29T10:27:42.333Z,71.60
2023-03-29T10:30:13.027Z,71.50
2023-03-29T10:32:41.086Z,71.20
2023-03-29T10:35:24.807Z,70.90
2023-03-29T10:37:55.654Z,71.20
2023-03-29T10:40:28.726Z,71.10
2023-03-29T10:43:11.977Z,71.00
2023-03-29T10:45:40.894Z,71.00
2023-03-29T10:48:15.770Z,71.10
2023-03-29T10:50:43.272Z,71.00
2023-03-29T10:53:24.109Z,70.90
2023-03-29T10:55:57.878Z,71.00
2023-03-29T10:59:02.025Z,71.30
2023-03-29T11:01:37.567Z,71.00
2023-03-29T11:04:24.090Z,70.80
2023-03-29T11:07:07.828Z,70.60
2023-03-29T11:10:05.454Z,70.50
2023-03-29T11:12:51.264Z,70.50
2023-03-29T11:15:33.183Z,70.50
2023-03-29T11:18:19.239Z,70.40
2023-03-29T11:21:14.470Z,70.60
2023-03-29T11:23:59.615Z,70.50
2023-03-29T11:26:51.811Z,70.50
2023-03-29T11:29:38.229Z,70.60
2023-03-29T11:32:15.769Z,70.60
2023-03-29T11:34:59.474Z,70.70
2023-03-29T11:37:48.547Z,70.60
2023-03-29T11:40:31.878Z,70.60
2023-03-29T11:43:02.289Z,70.60
2023-03-29T11:45:36.606Z,70.70
2023-03-29T11:48:08.614Z,70.70
2023-03-29T11:51:00.706Z,70.50
2023-03-29T11:53:43.195Z,70.60
2023-03-29T11:56:19.687Z,70.50
2023-03-29T11:58:55.080Z,70.70
2023-03-29T12:01:42.222Z,71.10
2023-03-29T12:04:28.722Z,71.00
2023-03-29T12:07:24.856Z,70.90
2023-03-29T12:10:17.718Z,71.30
2023-03-29T12:12:58.099Z,71.70
2023-03-29T12:15:27.479Z,71.20
2023-03-29T12:18:24.005Z,71.20
2023-03-29T12:21:00.186Z,71.20
2023-03-29T12:23:31.723Z,71.10
2023-03-29T12:26:17.111Z,71.10
2023-03-29T12:29:08.756Z,66.50
2023-03-29T12:31:38.711Z,65.00
2023-03-29T12:34:17.787Z,65.30
2023-03-29T12:37:23.339Z,60.80
2023-03-29T12:39:51.932Z,63.60
2023-03-29T12:42:21.985Z,66.50
2023-03-29T12:44:58.781Z,68.10
2023-03-29T12:47:32.407Z,69.30
2023-03-29T12:50:01.272Z,70.20
2023-03-29T12:52:35.719Z,71.00
2023-03-29T12:55:17.355Z,72.00
2023-03-29T12:58:00.843Z,72.50
2023-03-29T13:00:34.153Z,73.50
2023-03-29T13:03:19.607Z,74.10
2023-03-29T13:05:47.077Z,74.30
2023-03-29T13:08:26.178Z,74.70
2023-03-29T13:10:55.721Z,75.00
2023-03-29T13:13:33.851Z,75.30
2023-03-29T13:16:13.792Z,75.60
2023-03-29T13:18:40.909Z,75.80
2023-03-29T13:21:26.822Z,68.50
2023-03-29T13:24:22.161Z,74.70
2023-03-29T13:27:26.127Z,75.70
2023-03-29T13:29:59.890Z,76.20
2023-03-29T13:32:50.561Z,76.00
2023-03-29T13:35:36.734Z,77.10
2023-03-29T13:38:20.215Z,77.30
2023-03-29T13:40:59.384Z,78.30
2023-03-29T13:43:49.506Z,79.40
2023-03-29T13:46:24.947Z,79.00
2023-03-29T13:49:05.239Z,79.30
2023-03-29T13:51:58.202Z,79.50
2023-03-29T13:54:28.633Z,79.50
2023-03-29T13:56:58.962Z,79.90
2023-03-29T13:59:44.916Z,81.70
2023-03-29T14:02:49.294Z,79.10
2023-03-29T14:05:21.557Z,78.20
2023-03-29T14:07:52.483Z,78.40
2023-03-29T14:10:25.820Z,79.00
2023-03-29T14:12:54.358Z,79.00
2023-03-29T14:15:25.302Z,79.30
2023-03-29T14:18:00.309Z,79.40
2023-03-29T14:20:30.305Z,79.40
2023-03-29T14:22:57.461Z,79.30
2023-03-29T14:25:25.465Z,79.40
2023-03-29T14:27:52.563Z,79.40
2023-03-29T14:30:28.544Z,79.20
2023-03-29T14:32:56.591Z,79.40
2023-03-29T14:35:31.058Z,79.00
2023-03-29T14:37:58.937Z,78.90
2023-03-29T14:40:27.531Z,78.80
2023-03-29T14:42:55.531Z,78.80
2023-03-29T14:45:26.206Z,79.00
2023-03-29T14:47:53.515Z,78.80
2023-03-29T14:50:31.428Z,78.90
2023-03-29T14:52:59.821Z,78.80
2023-03-29T14:55:27.408Z,78.90
2023-03-29T14:57:55.715Z,78.90
2023-03-29T15:00:26.781Z,78.80
2023-03-29T15:03:03.088Z,78.70
2023-03-29T15:05:39.739Z,78.70
2023-03-29T15:08:13.218Z,78.40
2023-03-29T15:10:44.278Z,78.40
2023-03-29T15:13:19.525Z,78.40
2023-03-29T15:15:47.096Z,78.70
2023-03-29T15:18:16.173Z,78.30
2023-03-29T15:20:44.878Z,78.10
2023-03-29T15:23:14.910Z,77.90
2023-03-29T15:25:53.465Z,77.60
2023-03-29T15:28:30.741Z,77.90
2023-03-29T15:31:17.592Z,77.70
2023-03-29T15:33:44.817Z,78.00
2023-03-29T15:36:13.944Z,77.80
2023-03-29T15:38:44.986Z,77.20
2023-03-29T15:41:14.318Z,77.40
2023-03-29T15:43:42.208Z,77.50
2023-03-29T15:46:12.196Z,77.40
2023-03-29T15:48:39.800Z,77.10
2023-03-29T15:51:07.441Z,77.10
2023-03-29T15:53:35.719Z,77.20
2023-03-29T15:56:07.277Z,77.10
2023-03-29T15:58:35.505Z,77.10
2023-03-29T16:01:12.321Z,77.10
2023-03-29T16:03:40.097Z,77.30
2023-03-29T16:06:11.411Z,77.60
2023-03-29T16:08:38.596Z,78.00
2023-03-29T16:11:06.730Z,78.20
2023-03-29T16:13:33.826Z,78.00
2023-03-29T16:16:01.756Z,77.70
2023-03-29T16:18:29.103Z,77.70
2023-03-29T16:20:56.810Z,77.70
2023-03-29T16:23:23.893Z,78.00
2023-03-29T16:25:51.154Z,77.90
2023-03-29T16:28:18.188Z,77.70
2023-03-29T16:30:45.272Z,77.90
2023-03-29T16:33:12.474Z,78.00
2023-03-29T16:35:40.245Z,78.00
2023-03-29T16:38:07.994Z,78.30
2023-03-29T16:40:36.236Z,78.20
2023-03-29T16:43:04.432Z,78.10
2023-03-29T16:45:31.710Z,78.40
2023-03-29T16:47:58.827Z,78.20
2023-03-29T16:50:26.299Z,78.20
2023-03-29T16:52:53.504Z,77.80
2023-03-29T16:55:20.633Z,78.20
2023-03-29T16:57:48.423Z,78.70
2023-03-29T17:00:19.387Z,78.50
2023-03-29T17:02:49.571Z,78.00
2023-03-29T17:05:18.432Z,78.00
2023-03-29T17:07:46.737Z,78.00
2023-03-29T17:10:14.303Z,78.10
2023-03-29T17:12:41.480Z,78.00
2023-03-29T17:15:09.409Z,78.10
2023-03-29T17:17:37.527Z,78.10
2023-03-29T17:20:08.465Z,78.40
2023-03-29T17:22:35.908Z,78.40
2023-03-29T17:25:03.819Z,78.70
2023-03-29T17:27:30.914Z,78.90
2023-03-29T17:29:57.964Z,78.90
2023-03-29T17:32:25.361Z,78.90
2023-03-29T17:34:53.051Z,79.10
2023-03-29T17:37:23.787Z,79.20
2023-03-29T17:39:51.127Z,79.30
2023-03-29T17:42:18.164Z,79.40
2023-03-29T17:44:45.464Z,79.30
2023-03-29T17:47:12.548Z,79.10
2023-03-29T17:49:39.756Z,79.10
2023-03-29T17:52:06.828Z,79.10
2023-03-29T17:54:33.902Z,79.30
2023-03-29T17:57:01.000Z,79.80
2023-03-29T17:59:28.182Z,80.00
2023-03-29T18:01:55.286Z,80.10
2023-03-29T18:04:22.454Z,80.20
2023-03-29T18:06:49.719Z,80.30
2023-03-29T18:09:16.817Z,80.50
2023-03-29T18:11:43.913Z,80.90
2023-03-29T18:14:10.951Z,80.80
2023-03-29T18:16:38.092Z,80.90
2023-03-29T18:19:05.392Z,81.00
2023-03-29T18:21:32.548Z,81.00
2023-03-29T18:23:59.635Z,81.30
2023-03-29T18:26:28.424Z,81.40
2023-03-29T18:28:55.625Z,81.40
2023-03-29T18:31:22.788Z,81.50
2023-03-29T18:33:50.027Z,81.80
2023-03-29T18:36:17.199Z,81.90
2023-03-29T18:38:44.516Z,81.90
2023-03-29T18:41:13.321Z,81.90
2023-03-29T18:43:42.855Z,81.90
2023-03-29T18:46:09.954Z,81.90
2023-03-29T18:48:38.825Z,82.10
2023-03-29T18:51:07.841Z,82.00
2023-03-29T18:53:36.745Z,81.90
2023-03-29T18:56:04.491Z,81.90
2023-03-29T18:58:31.939Z,81.90
2023-03-29T19:01:04.050Z,81.90
2023-03-29T19:03:32.285Z,82.00
2023-03-29T19:05:59.452Z,82.20
2023-03-29T19:08:27.159Z,82.10
2023-03-29T19:11:00.996Z,81.90
2023-03-29T19:13:28.090Z,82.20
2023-03-29T19:15:55.209Z,82.50
2023-03-29T19:18:22.369Z,82.10
2023-03-29T19:20:54.084Z,82.00
2023-03-29T19:23:24.991Z,82.20
2023-03-29T19:25:57.020Z,82.30
2023-03-29T19:28:25.062Z,82.80
2023-03-29T19:30:52.769Z,83.30
2023-03-29T19:33:20.092Z,83.10
2023-03-29T19:35:49.802Z,83.00
2023-03-29T19:38:17.111Z,82.90
2023-03-29T19:40:48.703Z,82.90
2023-03-29T19:43:18.704Z,82.70
2023-03-29T19:45:47.555Z,82.60
2023-03-29T19:48:22.247Z,82.60
2023-03-29T19:50:50.577Z,82.60
2023-03-29T19:53:17.666Z,82.60
2023-03-29T19:55:45.132Z,82.50
2023-03-29T19:58:12.776Z,82.40
2023-03-29T20:00:41.445Z,82.70
2023-03-29T20:03:12.395Z,82.90
2023-03-29T20:05:40.075Z,83.00
2023-03-29T20:08:07.483Z,83.00
2023-03-29T20:10:35.763Z,82.90
2023-03-29T20:13:03.320Z,82.80
2023-03-29T20:15:30.443Z,82.70
2023-03-29T20:17:59.793Z,82.70
2023-03-29T20:20:28.296Z,82.50
2023-03-29T20:23:04.662Z,82.30
2023-03-29T20:25:36.052Z,82.40
2023-03-29T20:28:04.658Z,82.20
2023-03-29T20:30:31.823Z,82.10
2023-03-29T20:32:59.005Z,82.30
2023-03-29T20:35:26.961Z,82.10
2023-03-29T20:37:54.060Z,82.10
2023-03-29T20:40:21.187Z,81.90
2023-03-29T20:42:48.873Z,81.70
2023-03-29T20:45:19.288Z,81.90
2023-03-29T20:47:55.869Z,82.40
2023-03-29T20:50:30.095Z,82.50
2023-03-29T20:52:57.356Z,82.40
2023-03-29T20:55:24.816Z,82.90
2023-03-29T20:57:58.188Z,83.10
2023-03-29T21:00:27.232Z,82.90
2023-03-29T21:02:55.347Z,83.20
2023-03-29T21:05:23.111Z,83.40
2023-03-29T21:07:50.922Z,83.60
2023-03-29T21:10:18.131Z,83.40
2023-03-29T21:12:45.198Z,83.80
2023-03-29T21:15:13.458Z,83.50
2023-03-29T21:17:41.246Z,83.50
2023-03-29T21:20:10.876Z,83.70
2023-03-29T21:22:45.466Z,83.50
2023-03-29T21:25:15.485Z,83.60
2023-03-29T21:27:43.023Z,83.70
2023-03-29T21:30:10.953Z,83.60
2023-03-29T21:32:38.627Z,83.50
2023-03-29T21:35:06.717Z,83.60
2023-03-29T21:37:33.801Z,83.40
2023-03-29T21:40:01.201Z,83.60
2023-03-29T21:42:28.280Z,83.60
2023-03-29T21:44:55.573Z,83.70
2023-03-29T21:47:22.645Z,83.40
2023-03-29T21:49:49.717Z,83.30
2023-03-29T21:52:16.779Z,83.20
2023-03-29T21:54:43.848Z,83.30
2023-03-29T21:57:10.978Z,83.00
2023-03-29T21:59:38.033Z,83.50
2023-03-29T22:02:05.209Z,82.90
2023-03-29T22:04:36.900Z,82.80
2023-03-29T22:07:05.825Z,82.60
2023-03-29T22:09:34.916Z,82.60
2023-03-29T22:12:03.462Z,82.90
2023-03-29T22:14:34.541Z,82.90
2023-03-29T22:17:02.226Z,83.20
2023-03-29T22:19:29.295Z,83.30
2023-03-29T22:22:01.295Z,83.10
2023-03-29T22:24:29.026Z,83.10
2023-03-29T22:26:56.208Z,83.00
2023-03-29T22:29:23.324Z,82.90
2023-03-29T22:31:50.797Z,82.80
2023-03-29T22:34:17.989Z,82.90
2023-03-29T22:36:45.301Z,82.70
2023-03-29T22:39:13.308Z,82.90
2023-03-29T22:41:41.051Z,83.10
2023-03-29T22:44:08.739Z,83.00
2023-03-29T22:46:36.131Z,83.10
2023-03-29T22:49:03.378Z,83.10
2023-03-29T22:51:30.499Z,83.00
2023-03-29T22:53:57.627Z,83.10
2023-03-29T22:56:25.023Z,83.10
2023-03-29T22:58:52.108Z,83.30
2023-03-29T23:01:19.214Z,82.80
2023-03-29T23:03:46.318Z,82.70
2023-03-29T23:06:13.389Z,82.80
2023-03-29T23:08:40.860Z,83.20
2023-03-29T23:11:07.975Z,83.10
2023-03-29T23:13:35.376Z,83.10
2023-03-29T23:16:03.525Z,83.30
2023-03-29T23:18:32.373Z,83.30
2023-03-29T23:21:00.178Z,83.90
2023-03-29T23:23:28.167Z,83.90
2023-03-29T23:25:55.973Z,84.60
2023-03-29T23:28:27.124Z,84.30
2023-03-29T23:31:11.329Z,84.50
2023-03-29T23:33:40.965Z,84.40
2023-03-29T23:36:10.974Z,84.50
2023-03-29T23:38:39.682Z,84.40
2023-03-29T23:41:10.731Z,84.60
2023-03-29T23:43:40.436Z,84.70
2023-03-29T23:46:10.584Z,85.10
2023-03-29T23:48:38.546Z,85.40
2023-03-29T23:51:07.646Z,85.10
2023-03-29T23:53:34.720Z,85.40
2023-03-29T23:56:04.249Z,86.00
2023-03-29T23:58:34.198Z,86.40
